createdAt,value
2018-11-03T00:02:16.133Z,10.10
2018-11-03T00:04:45.028Z,10.01
2018-11-03T00:07:13.957Z,9.94
2018-11-03T00:09:42.870Z,9.88
2018-11-03T00:12:11.809Z,9.93
2018-11-03T00:14:40.733Z,9.89
2018-11-03T00:17:11.571Z,9.92
2018-11-03T00:19:44.841Z,9.88
2018-11-03T00:22:13.903Z,9.80
2018-11-03T00:24:42.809Z,9.77
2018-11-03T00:27:11.741Z,9.78
2018-11-03T00:29:40.638Z,9.76
2018-11-03T00:32:09.578Z,9.79
2018-11-03T00:34:38.481Z,9.79
2018-11-03T00:37:07.421Z,9.78
2018-11-03T00:39:36.326Z,9.77
2018-11-03T00:42:06.094Z,9.75
2018-11-03T00:44:35.079Z,9.72
2018-11-03T00:47:04.615Z,9.68
2018-11-03T00:49:33.549Z,9.67
2018-11-03T00:52:02.490Z,9.60
2018-11-03T00:54:31.397Z,9.52
2018-11-03T00:57:00.349Z,9.49
2018-11-03T00:59:29.290Z,9.49
2018-11-03T01:01:58.354Z,9.50
2018-11-03T01:04:27.261Z,9.41
2018-11-03T01:06:56.952Z,9.37
2018-11-03T01:09:25.889Z,9.36
2018-11-03T01:11:54.813Z,9.34
2018-11-03T01:14:23.730Z,9.30
2018-11-03T01:16:53.601Z,9.27
2018-11-03T01:19:22.509Z,9.26
2018-11-03T01:21:51.436Z,9.22
2018-11-03T01:24:20.354Z,9.21
2018-11-03T01:26:49.306Z,9.20
2018-11-03T01:29:18.206Z,9.09
2018-11-03T01:31:47.143Z,9.05
2018-11-03T01:34:16.062Z,8.96
2018-11-03T01:36:44.985Z,8.92
2018-11-03T01:39:13.874Z,8.90
2018-11-03T01:41:42.853Z,8.90
2018-11-03T01:44:11.754Z,8.90
2018-11-03T01:46:40.673Z,8.87
2018-11-03T01:49:09.569Z,8.86
2018-11-03T01:51:38.473Z,8.82
2018-11-03T01:54:07.389Z,8.84
2018-11-03T01:56:36.317Z,8.83
2018-11-03T01:59:05.329Z,8.81
2018-11-03T02:01:34.249Z,8.84
2018-11-03T02:04:03.130Z,8.81
2018-11-03T02:06:32.045Z,8.81
2018-11-03T02:09:00.958Z,8.79
2018-11-03T02:11:29.865Z,8.81
2018-11-03T02:13:58.757Z,8.79
2018-11-03T02:16:27.678Z,8.73
2018-11-03T02:18:56.569Z,8.71
2018-11-03T02:21:25.491Z,8.74
2018-11-03T02:23:54.385Z,8.68
2018-11-03T02:26:23.291Z,8.65
2018-11-03T02:28:52.209Z,8.62
2018-11-03T02:31:21.106Z,8.61
2018-11-03T02:33:50.026Z,8.64
2018-11-03T02:36:18.917Z,8.64
2018-11-03T02:38:47.857Z,8.60
2018-11-03T02:41:16.825Z,8.58
2018-11-03T02:43:45.730Z,8.57
2018-11-03T02:46:14.634Z,8.53
2018-11-03T02:48:43.558Z,8.48
2018-11-03T02:51:12.454Z,8.49
2018-11-03T02:53:41.402Z,8.48
2018-11-03T02:56:10.325Z,8.47
2018-11-03T02:58:39.247Z,8.44
2018-11-03T03:01:08.137Z,8.42
2018-11-03T03:03:37.072Z,8.41
2018-11-03T03:06:05.978Z,8.36
2018-11-03T03:08:34.890Z,8.24
2018-11-03T03:11:03.793Z,8.28
2018-11-03T03:13:32.728Z,8.24
2018-11-03T03:16:01.634Z,8.24
2018-11-03T03:18:30.561Z,8.24
2018-11-03T03:20:59.464Z,8.24
2018-11-03T03:23:28.373Z,8.20
2018-11-03T03:25:57.293Z,8.19
2018-11-03T03:28:26.202Z,8.16
2018-11-03T03:30:55.096Z,8.14
2018-11-03T03:33:24.104Z,8.09
2018-11-03T03:35:52.983Z,7.96
2018-11-03T03:38:21.922Z,7.92
2018-11-03T03:40:50.873Z,7.89
2018-11-03T03:43:19.815Z,7.88
2018-11-03T03:45:48.737Z,7.85
2018-11-03T03:48:17.663Z,7.87
2018-11-03T03:50:46.576Z,7.85
2018-11-03T03:53:15.493Z,7.84
2018-11-03T03:55:44.429Z,7.84
2018-11-03T03:58:13.345Z,7.82
2018-11-03T04:00:42.266Z,7.77
2018-11-03T04:03:11.214Z,7.74
2018-11-03T04:05:40.116Z,7.76
2018-11-03T04:08:09.052Z,7.81
2018-11-03T04:10:37.987Z,7.78
2018-11-03T04:13:07.013Z,7.80
2018-11-03T04:15:35.898Z,7.79
2018-11-03T04:18:05.062Z,7.77
2018-11-03T04:20:33.969Z,7.76
2018-11-03T04:23:02.918Z,7.78
2018-11-03T04:25:31.826Z,7.77
2018-11-03T04:28:00.749Z,7.75
2018-11-03T04:30:29.668Z,7.71
2018-11-03T04:32:58.565Z,7.62
2018-11-03T04:35:27.488Z,7.58
2018-11-03T04:37:56.425Z,7.54
2018-11-03T04:40:25.329Z,7.48
2018-11-03T04:42:54.245Z,7.52
2018-11-03T04:45:23.183Z,7.52
2018-11-03T04:47:52.086Z,7.48
2018-11-03T04:50:21.063Z,6.90
2018-11-03T04:52:49.945Z,7.47
2018-11-03T04:55:19.029Z,7.47
2018-11-03T04:57:47.800Z,7.47
2018-11-03T05:00:16.729Z,7.44
2018-11-03T05:02:45.645Z,7.48
2018-11-03T05:05:14.578Z,7.50
2018-11-03T05:07:43.622Z,7.49
2018-11-03T05:10:12.562Z,7.45
2018-11-03T05:12:41.470Z,7.44
2018-11-03T05:15:10.397Z,7.45
2018-11-03T05:17:39.289Z,7.45
2018-11-03T05:20:08.225Z,7.44
2018-11-03T05:22:37.130Z,7.41
2018-11-03T05:25:06.085Z,7.39
2018-11-03T05:27:34.997Z,7.37
2018-11-03T05:30:04.110Z,7.35
2018-11-03T05:32:33.001Z,7.35
2018-11-03T05:35:01.922Z,7.39
2018-11-03T05:37:30.850Z,7.36
2018-11-03T05:39:59.813Z,7.33
2018-11-03T05:42:28.718Z,7.28
2018-11-03T05:44:57.638Z,7.30
2018-11-03T05:47:26.556Z,7.28
2018-11-03T05:49:55.478Z,7.26
2018-11-03T05:52:24.366Z,7.24
2018-11-03T05:54:53.301Z,7.21
2018-11-03T05:57:22.196Z,7.20
2018-11-03T05:59:51.130Z,7.15
2018-11-03T06:02:20.042Z,7.10
2018-11-03T06:04:48.970Z,7.10
2018-11-03T06:07:17.865Z,7.10
2018-11-03T06:09:46.782Z,7.14
2018-11-03T06:12:15.697Z,7.17
2018-11-03T06:14:44.614Z,7.15
2018-11-03T06:17:13.513Z,7.10
2018-11-03T06:19:42.426Z,7.07
2018-11-03T06:22:11.321Z,7.05
2018-11-03T06:24:40.265Z,7.05
2018-11-03T06:27:09.161Z,7.10
2018-11-03T06:29:38.144Z,7.05
2018-11-03T06:32:07.006Z,7.02
2018-11-03T06:34:35.944Z,7.00
2018-11-03T06:37:05.098Z,6.99
2018-11-03T06:39:34.030Z,6.99
2018-11-03T06:42:02.938Z,7.04
2018-11-03T06:44:31.881Z,7.04
2018-11-03T06:47:00.777Z,7.04
2018-11-03T06:49:29.670Z,7.03
2018-11-03T06:51:58.583Z,7.05
2018-11-03T06:54:27.524Z,7.05
2018-11-03T06:56:56.392Z,7.01
2018-11-03T06:59:25.301Z,7.03
2018-11-03T07:01:54.225Z,7.01
2018-11-03T07:04:23.114Z,7.03
2018-11-03T07:06:52.034Z,7.10
2018-11-03T07:09:20.925Z,7.10
2018-11-03T07:11:49.864Z,7.14
2018-11-03T07:14:18.765Z,7.15
2018-11-03T07:16:50.914Z,7.19
2018-11-03T07:19:19.801Z,7.25
2018-11-03T07:21:48.795Z,7.32
2018-11-03T07:24:17.605Z,7.36
2018-11-03T07:26:46.508Z,7.40
2018-11-03T07:29:15.406Z,7.45
2018-11-03T07:31:44.315Z,7.53
2018-11-03T07:34:13.582Z,7.56
2018-11-03T07:36:42.493Z,7.60
2018-11-03T07:39:11.549Z,7.66
2018-11-03T07:41:40.504Z,7.66
2018-11-03T07:44:09.767Z,7.76
2018-11-03T07:46:38.682Z,7.80
2018-11-03T07:49:07.902Z,7.82
2018-11-03T07:51:36.700Z,7.89
2018-11-03T07:54:05.619Z,7.96
2018-11-03T07:56:34.540Z,8.01
2018-11-03T07:59:03.437Z,8.11
2018-11-03T08:01:32.386Z,8.18
2018-11-03T08:04:01.245Z,8.24
2018-11-03T08:06:30.190Z,8.33
2018-11-03T08:08:59.135Z,8.41
2018-11-03T08:11:27.993Z,8.45
2018-11-03T08:13:56.895Z,8.55
2018-11-03T08:16:25.817Z,8.64
2018-11-03T08:18:55.022Z,8.71
2018-11-03T08:21:23.950Z,8.77
2018-11-03T08:23:52.911Z,8.83
2018-11-03T08:26:21.761Z,8.84
2018-11-03T08:28:50.733Z,8.87
2018-11-03T08:31:19.725Z,8.94
2018-11-03T08:33:48.569Z,9.00
2018-11-03T08:36:17.569Z,9.05
2018-11-03T08:38:46.500Z,9.06
2018-11-03T08:41:15.409Z,9.11
2018-11-03T08:43:44.297Z,9.19
2018-11-03T08:46:13.213Z,9.12
2018-11-03T08:48:42.143Z,9.14
2018-11-03T08:51:11.053Z,9.15
2018-11-03T08:53:39.946Z,9.24
2018-11-03T08:56:08.857Z,9.27
2018-11-03T08:58:37.746Z,9.37
2018-11-03T09:01:06.910Z,9.40
2018-11-03T09:03:35.797Z,9.50
2018-11-03T09:06:04.717Z,9.52
2018-11-03T09:08:33.626Z,9.60
2018-11-03T09:11:02.575Z,9.77
2018-11-03T09:13:31.569Z,10.19
2018-11-03T09:16:00.474Z,10.13
2018-11-03T09:18:29.393Z,10.13
2018-11-03T09:20:58.285Z,10.19
2018-11-03T09:23:27.197Z,10.20
2018-11-03T09:25:56.160Z,10.22
2018-11-03T09:28:24.997Z,10.28
2018-11-03T09:30:53.899Z,10.34
2018-11-03T09:33:22.825Z,10.32
2018-11-03T09:35:51.716Z,10.30
2018-11-03T09:38:20.725Z,10.39
2018-11-03T09:40:49.574Z,10.42
2018-11-03T09:43:18.528Z,10.44
2018-11-03T09:45:47.397Z,10.50
2018-11-03T09:48:16.289Z,10.49
2018-11-03T09:50:45.452Z,10.59
2018-11-03T09:53:14.221Z,10.72
2018-11-03T09:55:43.113Z,10.78
2018-11-03T09:58:12.045Z,10.82
2018-11-03T10:00:40.991Z,10.85
2018-11-03T10:03:09.864Z,10.91
2018-11-03T10:05:38.832Z,10.89
2018-11-03T10:08:07.744Z,10.86
2018-11-03T10:10:36.648Z,10.93
2018-11-03T10:13:05.731Z,10.95
2018-11-03T10:15:34.625Z,10.99
2018-11-03T10:18:03.550Z,11.05
2018-11-03T10:20:32.445Z,11.19
2018-11-03T10:23:01.477Z,11.25
2018-11-03T10:25:30.304Z,11.29
2018-11-03T10:28:00.287Z,11.21
2018-11-03T10:30:29.203Z,11.40
2018-11-03T10:32:58.112Z,11.52
2018-11-03T10:35:30.773Z,11.50
2018-11-03T10:37:59.720Z,11.57
2018-11-03T10:40:28.654Z,11.63
2018-11-03T10:42:57.568Z,11.74
2018-11-03T10:45:26.489Z,11.69
2018-11-03T10:47:55.401Z,11.62
2018-11-03T10:50:24.338Z,11.60
2018-11-03T10:52:53.265Z,11.63
2018-11-03T10:55:22.194Z,11.77
2018-11-03T10:57:51.160Z,11.94
2018-11-03T11:00:25.973Z,12.10
2018-11-03T11:03:00.501Z,12.19
2018-11-03T11:05:35.535Z,12.19
2018-11-03T11:08:09.662Z,12.16
2018-11-03T11:10:43.993Z,12.15
2018-11-03T11:13:21.033Z,12.22
2018-11-03T11:15:51.542Z,12.41
2018-11-03T11:18:20.438Z,12.50
2018-11-03T11:20:49.540Z,12.53
2018-11-03T11:23:18.491Z,12.63
2018-11-03T11:25:47.413Z,12.75
2018-11-03T11:28:16.331Z,12.68
2018-11-03T11:30:46.063Z,12.77
2018-11-03T11:33:16.560Z,12.84
2018-11-03T11:35:45.500Z,12.93
2018-11-03T11:38:15.037Z,13.01
2018-11-03T11:40:44.399Z,12.89
2018-11-03T11:43:14.819Z,12.84
2018-11-03T11:45:43.605Z,12.94
2018-11-03T11:48:12.521Z,12.96
2018-11-03T11:50:41.498Z,13.02
2018-11-03T11:53:10.434Z,12.86
2018-11-03T11:55:39.349Z,12.85
2018-11-03T11:58:08.314Z,12.81
2018-11-03T12:00:37.266Z,12.83
2018-11-03T12:03:06.185Z,12.97
2018-11-03T12:05:35.113Z,12.94
2018-11-03T12:08:04.028Z,13.06
2018-11-03T12:10:32.955Z,13.05
2018-11-03T12:13:01.954Z,13.05
2018-11-03T12:15:30.909Z,13.17
2018-11-03T12:17:59.837Z,13.24
2018-11-03T12:20:28.770Z,13.34
2018-11-03T12:22:57.730Z,13.30
2018-11-03T12:25:26.688Z,13.27
2018-11-03T12:27:55.574Z,13.31
2018-11-03T12:30:24.498Z,13.44
2018-11-03T12:32:53.405Z,13.35
2018-11-03T12:35:22.333Z,13.36
2018-11-03T12:37:51.783Z,13.27
2018-11-03T12:40:20.769Z,13.18
2018-11-03T12:42:49.757Z,13.26
2018-11-03T12:45:19.578Z,13.27
2018-11-03T12:47:48.522Z,13.20
2018-11-03T12:50:18.057Z,13.20
2018-11-03T12:52:47.733Z,13.18
2018-11-03T12:55:16.691Z,13.27
2018-11-03T12:57:45.582Z,13.19
2018-11-03T13:00:15.669Z,13.03
2018-11-03T13:02:45.745Z,13.07
2018-11-03T13:05:14.920Z,13.07
2018-11-03T13:07:44.924Z,13.15
2018-11-03T13:10:13.865Z,13.10
2018-11-03T13:12:43.927Z,13.22
2018-11-03T13:15:14.047Z,13.14
2018-11-03T13:17:42.966Z,13.21
2018-11-03T13:20:13.434Z,13.17
2018-11-03T13:22:43.242Z,13.11
2018-11-03T13:25:12.553Z,13.10
2018-11-03T13:27:42.158Z,13.16
2018-11-03T13:30:12.718Z,13.11
2018-11-03T13:32:43.706Z,13.13
2018-11-03T13:35:13.553Z,13.07
2018-11-03T13:37:42.517Z,13.06
2018-11-03T13:40:13.077Z,13.03
2018-11-03T13:42:42.435Z,13.03
2018-11-03T13:45:11.769Z,13.11
2018-11-03T13:47:40.968Z,13.14
2018-11-03T13:50:15.178Z,13.11
2018-11-03T13:52:45.486Z,13.12
2018-11-03T13:55:14.682Z,13.04
2018-11-03T13:57:45.026Z,13.03
2018-11-03T14:00:18.255Z,13.04
2018-11-03T14:02:47.995Z,13.05
2018-11-03T14:05:18.091Z,13.11
2018-11-03T14:07:46.994Z,13.05
2018-11-03T14:10:17.029Z,13.08
2018-11-03T14:12:46.746Z,13.14
2018-11-03T14:15:16.990Z,13.18
2018-11-03T14:17:45.854Z,13.10
2018-11-03T14:20:15.749Z,13.05
2018-11-03T14:22:45.400Z,13.08
2018-11-03T14:25:15.658Z,13.06
2018-11-03T14:27:45.473Z,13.09
2018-11-03T14:30:14.563Z,13.14
2018-11-03T14:32:44.957Z,13.21
2018-11-03T14:35:14.821Z,13.20
2018-11-03T14:37:43.962Z,13.19
2018-11-03T14:43:02.729Z,13.19
2018-11-03T14:45:31.653Z,13.16
2018-11-03T14:48:00.606Z,13.15
2018-11-03T14:50:32.022Z,13.18
2018-11-03T14:53:01.107Z,13.23
2018-11-03T14:55:30.137Z,13.22
2018-11-03T14:57:59.061Z,13.21
2018-11-03T15:00:34.066Z,13.22
2018-11-03T15:03:03.506Z,13.23
2018-11-03T15:05:32.550Z,13.21
2018-11-03T15:08:01.482Z,13.19
2018-11-03T15:10:30.401Z,13.11
2018-11-03T15:12:59.348Z,13.07
2018-11-03T15:15:28.599Z,13.05
2018-11-03T15:17:57.552Z,13.04
2018-11-03T15:20:26.607Z,13.01
2018-11-03T15:22:55.592Z,12.99
2018-11-03T15:25:24.512Z,12.92
2018-11-03T15:27:53.444Z,12.93
2018-11-03T15:30:22.375Z,12.82
2018-11-03T15:32:51.308Z,12.82
2018-11-03T15:35:20.226Z,12.79
2018-11-03T15:37:49.168Z,12.75
2018-11-03T15:40:18.118Z,12.70
2018-11-03T15:42:47.047Z,12.60
2018-11-03T15:45:17.212Z,12.57
2018-11-03T15:47:46.964Z,12.42
2018-11-03T15:50:16.432Z,12.35
2018-11-03T15:52:45.728Z,12.25
2018-11-03T15:55:14.920Z,12.17
2018-11-03T15:57:43.952Z,12.05
2018-11-03T16:00:17.722Z,11.87
2018-11-03T16:02:47.149Z,11.71
2018-11-03T16:05:16.505Z,11.62
2018-11-03T16:07:46.230Z,11.63
2018-11-03T16:10:15.238Z,11.57
2018-11-03T16:12:44.219Z,11.57
2018-11-03T16:15:13.604Z,11.59
2018-11-03T16:17:42.925Z,11.55
2018-11-03T16:20:12.857Z,11.48
2018-11-03T16:22:42.474Z,11.47
2018-11-03T16:25:11.361Z,11.43
2018-11-03T16:27:40.805Z,11.31
2018-11-03T16:30:13.873Z,11.30
2018-11-03T16:32:43.378Z,11.24
2018-11-03T16:35:12.109Z,11.78
2018-11-03T16:37:41.808Z,11.73
2018-11-03T16:40:15.713Z,11.48
2018-11-03T16:42:45.307Z,11.26
2018-11-03T16:45:15.465Z,10.99
2018-11-03T16:47:44.722Z,10.89
2018-11-03T16:50:14.946Z,10.85
2018-11-03T16:52:43.938Z,10.71
2018-11-03T16:55:13.899Z,10.58
2018-11-03T16:57:42.781Z,10.47
2018-11-03T17:00:14.414Z,10.50
2018-11-03T17:02:43.324Z,10.54
2018-11-03T17:05:13.411Z,10.52
2018-11-03T17:07:43.388Z,10.44
2018-11-03T17:10:14.844Z,10.39
2018-11-03T17:12:46.098Z,10.36
2018-11-03T17:15:15.323Z,10.35
2018-11-03T17:17:44.396Z,10.33
2018-11-03T17:20:13.329Z,10.25
2018-11-03T17:22:42.245Z,10.24
2018-11-03T17:25:12.044Z,10.19
2018-11-03T17:27:40.853Z,10.15
2018-11-03T17:30:12.265Z,9.95
2018-11-03T17:32:41.181Z,9.79
2018-11-03T17:35:10.458Z,9.79
2018-11-03T17:37:40.139Z,9.64
2018-11-03T17:40:09.862Z,9.55
2018-11-03T17:42:38.816Z,9.52
2018-11-03T17:45:08.946Z,9.45
2018-11-03T17:47:37.982Z,9.39
2018-11-03T17:50:08.388Z,9.30
2018-11-03T17:52:37.305Z,9.26
2018-11-03T17:55:06.891Z,9.29
2018-11-03T17:57:35.803Z,9.33
2018-11-03T18:00:06.838Z,9.24
2018-11-03T18:02:35.654Z,9.20
2018-11-03T18:05:04.932Z,9.05
2018-11-03T18:07:33.843Z,8.90
2018-11-03T18:10:02.866Z,8.93
2018-11-03T18:12:31.794Z,8.95
2018-11-03T18:15:00.725Z,8.87
2018-11-03T18:17:29.932Z,8.86
2018-11-03T18:19:58.914Z,8.90
2018-11-03T18:22:27.841Z,8.94
2018-11-03T18:24:56.750Z,9.00
2018-11-03T18:27:25.707Z,9.07
2018-11-03T18:29:55.678Z,9.07
2018-11-03T18:32:24.594Z,9.14
2018-11-03T18:34:53.506Z,9.14
2018-11-03T18:37:22.481Z,9.18
2018-11-03T18:39:51.394Z,9.15
2018-11-03T18:42:20.414Z,9.11
2018-11-03T18:44:49.317Z,9.11
2018-11-03T18:47:18.301Z,9.03
2018-11-03T18:49:47.208Z,8.99
2018-11-03T18:52:16.127Z,8.90
2018-11-03T18:54:45.017Z,8.92
2018-11-03T18:57:13.973Z,8.86
2018-11-03T18:59:42.881Z,8.82
2018-11-03T19:02:11.855Z,8.75
2018-11-03T19:04:40.729Z,8.69
2018-11-03T19:07:09.672Z,8.53
2018-11-03T19:09:38.665Z,8.43
2018-11-03T19:12:07.850Z,8.24
2018-11-03T19:14:37.244Z,8.19
2018-11-03T19:17:06.256Z,8.21
2018-11-03T19:19:35.462Z,8.30
2018-11-03T19:22:04.456Z,8.25
2018-11-03T19:24:33.369Z,8.05
2018-11-03T19:27:02.888Z,8.01
2018-11-03T19:29:32.459Z,7.94
2018-11-03T19:32:02.143Z,7.73
2018-11-03T19:34:31.705Z,7.69
2018-11-03T19:37:01.424Z,7.66
2018-11-03T19:39:31.986Z,7.66
2018-11-03T19:42:02.691Z,7.71
2018-11-03T19:44:32.765Z,7.74
2018-11-03T19:47:02.407Z,7.91
2018-11-03T19:49:32.214Z,8.02
2018-11-03T19:52:01.859Z,8.04
2018-11-03T19:54:31.563Z,8.12
2018-11-03T19:57:01.189Z,8.11
2018-11-03T19:59:30.939Z,8.18
2018-11-03T20:02:00.215Z,8.28
2018-11-03T20:04:29.917Z,8.40
2018-11-03T20:06:59.429Z,8.42
2018-11-03T20:09:29.104Z,8.39
2018-11-03T20:11:58.934Z,8.40
2018-11-03T20:14:28.385Z,8.25
2018-11-03T20:16:57.782Z,8.17
2018-11-03T20:19:27.371Z,8.27
2018-11-03T20:21:57.972Z,8.33
2018-11-03T20:24:27.204Z,8.37
2018-11-03T20:26:58.610Z,8.50
2018-11-03T20:29:28.198Z,8.58
2018-11-03T20:31:57.924Z,8.65
2018-11-03T20:34:27.751Z,8.57
2018-11-03T20:36:57.343Z,8.59
2018-11-03T20:39:26.925Z,8.52
2018-11-03T20:41:56.633Z,8.36
2018-11-03T20:44:26.207Z,8.42
2018-11-03T20:46:55.550Z,8.45
2018-11-03T20:49:25.251Z,8.42
2018-11-03T20:51:54.433Z,8.26
2018-11-03T20:54:24.010Z,8.01
2018-11-03T20:56:53.634Z,7.92
2018-11-03T20:59:23.235Z,7.82
2018-11-03T21:01:52.843Z,7.88
2018-11-03T21:04:22.078Z,7.88
2018-11-03T21:06:51.606Z,7.81
2018-11-03T21:09:21.000Z,7.69
2018-11-03T21:11:50.602Z,7.60
2018-11-03T21:14:20.267Z,7.62
2018-11-03T21:16:49.872Z,7.58
2018-11-03T21:19:19.693Z,7.55
2018-11-03T21:21:49.264Z,7.50
2018-11-03T21:24:19.026Z,7.50
2018-11-03T21:26:48.634Z,7.52
2018-11-03T21:29:18.218Z,7.60
2018-11-03T21:31:47.863Z,7.68
2018-11-03T21:34:17.408Z,7.80
2018-11-03T21:36:47.029Z,7.80
2018-11-03T21:39:16.001Z,7.81
2018-11-03T21:41:44.923Z,7.75
2018-11-03T21:44:13.851Z,7.79
2018-11-03T21:46:42.947Z,7.81
2018-11-03T21:49:12.101Z,7.70
2018-11-03T21:51:41.051Z,7.67
2018-11-03T21:54:09.998Z,7.59
2018-11-03T21:56:38.971Z,7.53
2018-11-03T21:59:07.950Z,7.55
2018-11-03T22:01:37.075Z,7.59
2018-11-03T22:04:06.190Z,7.70
2018-11-03T22:06:35.449Z,7.82
2018-11-03T22:09:06.014Z,7.88
2018-11-03T22:11:34.977Z,7.94
2018-11-03T22:14:03.921Z,7.90
2018-11-03T22:16:32.838Z,7.78
2018-11-03T22:19:01.777Z,7.68
2018-11-03T22:21:31.495Z,7.55
2018-11-03T22:24:00.978Z,7.48
2018-11-03T22:26:29.962Z,7.41
2018-11-03T22:28:58.889Z,7.38
2018-11-03T22:31:27.838Z,7.22
2018-11-03T22:33:56.775Z,7.12
2018-11-03T22:36:25.737Z,6.82
2018-11-03T22:38:54.693Z,7.21
2018-11-03T22:41:23.638Z,7.26
2018-11-03T22:43:52.543Z,7.33
2018-11-03T22:46:21.469Z,7.30
2018-11-03T22:48:50.434Z,7.15
2018-11-03T22:51:19.431Z,7.25
2018-11-03T22:53:48.313Z,7.30
2018-11-03T22:56:17.254Z,7.28
2018-11-03T22:58:46.169Z,7.32
2018-11-03T23:01:15.113Z,7.14
2018-11-03T23:03:44.037Z,7.08
2018-11-03T23:06:12.980Z,7.09
2018-11-03T23:08:41.897Z,7.02
2018-11-03T23:11:10.859Z,6.97
2018-11-03T23:13:39.823Z,6.94
2018-11-03T23:16:08.770Z,7.01
2018-11-03T23:18:37.665Z,7.12
2018-11-03T23:21:06.692Z,7.06
2018-11-03T23:23:35.629Z,7.07
2018-11-03T23:26:04.757Z,6.86
2018-11-03T23:28:33.716Z,6.66
2018-11-03T23:31:02.681Z,6.46
2018-11-03T23:33:31.645Z,6.45
2018-11-03T23:36:01.847Z,6.54
2018-11-03T23:38:32.239Z,6.51
2018-11-03T23:41:01.602Z,6.65
2018-11-03T23:43:30.557Z,6.73
2018-11-03T23:45:59.569Z,6.80
2018-11-03T23:48:28.629Z,6.94
2018-11-03T23:50:57.616Z,6.98
2018-11-03T23:53:26.632Z,7.08
2018-11-03T23:55:55.529Z,7.15
2018-11-03T23:58:24.438Z,7.17
